createdAt,value
2022-12-12T00:00:35.548Z,-1.70
2022-12-12T00:03:22.144Z,-1.70
2022-12-12T00:05:49.497Z,-1.70
2022-12-12T00:08:16.751Z,-1.70
2022-12-12T00:10:43.857Z,-1.70
2022-12-12T00:13:11.292Z,-1.70
2022-12-12T00:15:38.293Z,-1.70
2022-12-12T00:18:05.874Z,-1.60
2022-12-12T00:20:32.807Z,-1.60
2022-12-12T00:23:00.032Z,-1.60
2022-12-12T00:25:26.913Z,-1.70
2022-12-12T00:27:54.379Z,-1.70
2022-12-12T00:30:21.299Z,-1.60
2022-12-12T00:32:48.678Z,-1.60
2022-12-12T00:35:15.850Z,-1.60
2022-12-12T00:37:43.286Z,-1.60
2022-12-12T00:40:11.052Z,-1.60
2022-12-12T00:42:41.449Z,-1.60
2022-12-12T00:45:08.882Z,-1.60
2022-12-12T00:47:36.084Z,-1.60
2022-12-12T00:50:03.893Z,-1.60
2022-12-12T00:52:31.342Z,-1.60
2022-12-12T00:54:58.327Z,-1.60
2022-12-12T00:57:25.426Z,-1.60
2022-12-12T00:59:52.391Z,-1.60
2022-12-12T01:02:24.874Z,-1.60
2022-12-12T01:04:54.807Z,-1.60
2022-12-12T01:07:22.310Z,-1.60
2022-12-12T01:09:49.345Z,-1.60
2022-12-12T01:12:16.553Z,-1.60
2022-12-12T01:14:43.498Z,-1.50
2022-12-12T01:17:10.997Z,-1.60
2022-12-12T01:19:37.886Z,-1.50
2022-12-12T01:22:05.384Z,-1.50
2022-12-12T01:24:32.442Z,-1.50
2022-12-12T01:26:59.871Z,-1.60
2022-12-12T01:29:26.795Z,-1.60
2022-12-12T01:31:54.053Z,-1.50
2022-12-12T01:34:20.901Z,-1.60
2022-12-12T01:36:48.047Z,-1.60
2022-12-12T01:39:14.901Z,-1.60
2022-12-12T01:41:43.677Z,-1.50
2022-12-12T01:44:44.594Z,-1.50
2022-12-12T01:47:17.979Z,-1.50
2022-12-12T01:49:47.165Z,-1.50
2022-12-12T01:52:20.595Z,-1.50
2022-12-12T01:54:51.043Z,-1.50
2022-12-12T01:57:25.983Z,-1.50
2022-12-12T01:59:53.286Z,-1.50
2022-12-12T02:02:20.789Z,-1.50
2022-12-12T02:04:48.078Z,-1.50
2022-12-12T02:07:17.745Z,-1.50
2022-12-12T02:09:46.229Z,-1.50
2022-12-12T02:12:14.751Z,-1.50
2022-12-12T02:14:46.500Z,-1.50
2022-12-12T02:18:00.994Z,-1.50
2022-12-12T02:20:52.473Z,-1.50
2022-12-12T02:23:46.942Z,-1.50
2022-12-12T02:26:35.491Z,-1.50
2022-12-12T02:29:05.902Z,-1.50
2022-12-12T02:31:51.879Z,-1.50
2022-12-12T02:34:44.303Z,-1.40
2022-12-12T02:37:53.632Z,-1.40
2022-12-12T02:40:32.070Z,-1.40
2022-12-12T02:43:21.805Z,-1.40
2022-12-12T02:45:55.448Z,-1.40
2022-12-12T02:48:47.230Z,-1.40
2022-12-12T02:51:16.821Z,-1.40
2022-12-12T02:53:43.906Z,-1.30
2022-12-12T02:56:47.729Z,-1.30
2022-12-12T02:59:39.791Z,-1.30
2022-12-12T03:02:37.917Z,-1.40
2022-12-12T03:05:45.328Z,-1.40
2022-12-12T03:08:38.598Z,-1.40
2022-12-12T03:11:15.841Z,-1.30
2022-12-12T03:14:26.173Z,-1.30
2022-12-12T03:17:11.813Z,-1.30
2022-12-12T03:19:53.010Z,-1.40
2022-12-12T03:22:26.090Z,-1.30
2022-12-12T03:25:17.752Z,-1.30
2022-12-12T03:27:47.531Z,-1.30
2022-12-12T03:30:17.766Z,-1.30
2022-12-12T03:32:58.561Z,-1.30
2022-12-12T03:35:37.456Z,-1.30
2022-12-12T03:38:44.983Z,-1.30
2022-12-12T03:41:20.431Z,-1.30
2022-12-12T03:43:53.340Z,-1.30
2022-12-12T03:46:27.096Z,-1.40
2022-12-12T03:48:58.741Z,-1.40
2022-12-12T03:51:43.733Z,-1.40
2022-12-12T03:54:42.641Z,-1.40
2022-12-12T03:57:24.135Z,-1.40
2022-12-12T04:00:00.606Z,-1.40
2022-12-12T04:02:38.334Z,-1.40
2022-12-12T04:05:21.824Z,-1.40
2022-12-12T04:07:58.864Z,-1.40
2022-12-12T04:10:47.424Z,-1.40
2022-12-12T04:13:38.692Z,-1.40
2022-12-12T04:16:12.019Z,-1.40
2022-12-12T04:19:01.613Z,-1.40
2022-12-12T04:22:05.678Z,-1.40
2022-12-12T04:24:42.529Z,-1.40
2022-12-12T04:27:25.801Z,-1.40
2022-12-12T04:30:16.347Z,-1.40
2022-12-12T04:33:09.012Z,-1.40
2022-12-12T04:35:43.805Z,-1.40
2022-12-12T04:38:18.369Z,-1.40
2022-12-12T04:40:50.949Z,-1.30
2022-12-12T04:43:22.890Z,-1.40
2022-12-12T04:46:06.572Z,-1.30
2022-12-12T04:48:58.667Z,-1.40
2022-12-12T04:51:30.735Z,-1.30
2022-12-12T04:54:05.077Z,-1.30
2022-12-12T04:56:35.805Z,-1.30
2022-12-12T04:59:03.854Z,-1.30
2022-12-12T05:01:54.302Z,-1.30
2022-12-12T05:04:33.583Z,-1.30
2022-12-12T05:07:07.662Z,-1.30
2022-12-12T05:09:36.410Z,-1.30
2022-12-12T05:12:03.801Z,-1.30
2022-12-12T05:14:31.738Z,-1.20
2022-12-12T05:17:08.085Z,-1.20
2022-12-12T05:19:34.951Z,-1.30
2022-12-12T05:22:02.094Z,-1.20
2022-12-12T05:24:31.255Z,-1.20
2022-12-12T05:26:59.688Z,-1.20
2022-12-12T05:29:26.610Z,-1.20
2022-12-12T05:31:53.773Z,-1.20
2022-12-12T05:34:20.636Z,-1.20
2022-12-12T05:36:48.105Z,-1.10
2022-12-12T05:39:15.139Z,-1.10
2022-12-12T05:41:42.703Z,-1.10
2022-12-12T05:44:09.621Z,-1.10
2022-12-12T05:46:37.191Z,-1.10
2022-12-12T05:49:04.053Z,-1.10
2022-12-12T05:51:31.517Z,-1.10
2022-12-12T05:53:58.393Z,-1.10
2022-12-12T05:56:25.579Z,-1.10
2022-12-12T05:58:52.456Z,-1.10
2022-12-12T06:01:19.599Z,-1.10
2022-12-12T06:03:46.533Z,-1.10
2022-12-12T06:06:13.961Z,-1.10
2022-12-12T06:08:40.955Z,-1.10
2022-12-12T06:11:08.647Z,-1.10
2022-12-12T06:13:36.657Z,-1.10
2022-12-12T06:16:08.635Z,-1.10
2022-12-12T06:18:36.048Z,-1.10
2022-12-12T06:21:05.474Z,-1.10
2022-12-12T06:23:32.345Z,-1.10
2022-12-12T06:25:59.545Z,-1.10
2022-12-12T06:28:26.404Z,-1.10
2022-12-12T06:30:53.619Z,-1.10
2022-12-12T06:33:20.532Z,-1.10
2022-12-12T06:36:01.785Z,-1.10
2022-12-12T06:38:29.398Z,-1.10
2022-12-12T06:40:57.289Z,-1.00
2022-12-12T06:43:24.280Z,-1.10
2022-12-12T06:45:52.217Z,-1.10
2022-12-12T06:48:19.137Z,-1.00
2022-12-12T06:50:46.649Z,-1.00
2022-12-12T06:53:13.597Z,-1.00
2022-12-12T06:55:44.135Z,-1.00
2022-12-12T06:58:11.158Z,-1.00
2022-12-12T07:00:38.343Z,-1.00
2022-12-12T07:03:05.545Z,-0.90
2022-12-12T07:05:33.180Z,-0.90
2022-12-12T07:08:02.866Z,-0.90
2022-12-12T07:10:31.390Z,-0.90
2022-12-12T07:12:58.276Z,-0.90
2022-12-12T07:15:25.714Z,-0.80
2022-12-12T07:17:53.801Z,-0.80
2022-12-12T07:20:21.366Z,-0.80
2022-12-12T07:22:48.390Z,-0.70
2022-12-12T07:25:16.081Z,-0.70
2022-12-12T07:27:43.083Z,-0.70
2022-12-12T07:30:10.815Z,-0.70
2022-12-12T07:32:37.753Z,-0.70
2022-12-12T07:35:05.461Z,-0.70
2022-12-12T07:37:32.358Z,-0.70
2022-12-12T07:39:59.768Z,-0.70
2022-12-12T07:42:26.620Z,-0.60
2022-12-12T07:44:53.933Z,-0.60
2022-12-12T07:47:20.823Z,-0.60
2022-12-12T07:49:48.038Z,-0.60
2022-12-12T07:52:15.191Z,-0.60
2022-12-12T07:54:42.380Z,-0.50
2022-12-12T07:57:09.325Z,-0.50
2022-12-12T07:59:36.670Z,-0.50
2022-12-12T08:02:03.743Z,-0.50
2022-12-12T08:04:31.595Z,-0.50
2022-12-12T08:07:03.977Z,-0.50
2022-12-12T08:09:35.911Z,-0.50
2022-12-12T08:12:03.211Z,-0.50
2022-12-12T08:14:30.695Z,-0.50
2022-12-12T08:16:57.756Z,-0.40
2022-12-12T08:19:24.943Z,-0.40
2022-12-12T08:21:52.031Z,-0.40
2022-12-12T08:24:19.437Z,-0.30
2022-12-12T08:26:46.425Z,-0.30
2022-12-12T08:29:13.869Z,-0.30
2022-12-12T08:31:41.064Z,-0.30
2022-12-12T08:34:08.569Z,-0.30
2022-12-12T08:36:36.695Z,-0.20
2022-12-12T08:39:16.050Z,-0.20
2022-12-12T08:41:45.294Z,-0.20
2022-12-12T08:44:13.583Z,-0.20
2022-12-12T08:46:41.362Z,-0.10
2022-12-12T08:49:10.006Z,-0.10
2022-12-12T08:51:41.234Z,0.00
2022-12-12T08:54:09.945Z,0.00
2022-12-12T08:56:36.947Z,0.10
2022-12-12T08:59:04.649Z,0.10
2022-12-12T09:01:31.782Z,0.10
2022-12-12T09:03:59.473Z,0.20
2022-12-12T09:06:27.009Z,0.20
2022-12-12T09:08:56.478Z,0.30
2022-12-12T09:11:23.807Z,0.30
2022-12-12T09:13:51.597Z,0.30
2022-12-12T09:16:19.855Z,0.40
2022-12-12T09:18:49.257Z,0.50
2022-12-12T09:21:17.540Z,0.50
2022-12-12T09:23:45.370Z,0.50
2022-12-12T09:26:12.374Z,0.50
2022-12-12T09:28:40.103Z,0.50
2022-12-12T09:31:08.382Z,0.60
2022-12-12T09:33:36.315Z,0.50
2022-12-12T09:36:05.985Z,0.60
2022-12-12T09:38:33.985Z,0.60
2022-12-12T09:41:23.328Z,0.60
2022-12-12T09:44:11.406Z,0.60
2022-12-12T09:47:01.804Z,0.60
2022-12-12T09:49:49.026Z,0.60
2022-12-12T09:52:24.033Z,0.70
2022-12-12T09:54:54.254Z,0.70
2022-12-12T09:57:30.117Z,0.70
2022-12-12T10:00:12.488Z,0.80
2022-12-12T10:02:58.247Z,0.80
2022-12-12T10:05:34.721Z,0.90
2022-12-12T10:08:23.609Z,1.00
2022-12-12T10:11:07.106Z,1.00
2022-12-12T10:13:36.179Z,1.00
2022-12-12T10:16:09.408Z,1.10
2022-12-12T10:18:43.491Z,1.10
2022-12-12T10:21:27.052Z,1.10
2022-12-12T10:24:08.207Z,1.10
2022-12-12T10:26:35.414Z,1.10
2022-12-12T10:29:12.558Z,1.10
2022-12-12T10:31:48.924Z,1.00
2022-12-12T10:34:18.936Z,1.00
2022-12-12T10:37:14.358Z,1.00
2022-12-12T10:39:58.416Z,1.00
2022-12-12T10:42:36.862Z,1.10
2022-12-12T10:45:26.380Z,1.20
2022-12-12T10:47:53.959Z,1.20
2022-12-12T10:50:37.163Z,1.20
2022-12-12T10:53:07.669Z,1.20
2022-12-12T10:55:58.205Z,1.20
2022-12-12T10:58:39.767Z,1.20
2022-12-12T11:01:18.762Z,1.10
2022-12-12T11:03:49.113Z,1.10
2022-12-12T11:06:26.286Z,1.20
2022-12-12T11:09:22.729Z,1.20
2022-12-12T11:12:10.018Z,1.20
2022-12-12T11:14:40.112Z,1.20
2022-12-12T11:17:27.052Z,1.20
2022-12-12T11:19:57.003Z,1.20
2022-12-12T11:22:25.289Z,1.20
2022-12-12T11:24:53.226Z,1.20
2022-12-12T11:27:35.252Z,1.20
2022-12-12T11:30:05.469Z,1.20
2022-12-12T11:32:41.588Z,1.10
2022-12-12T11:35:27.775Z,1.10
2022-12-12T11:38:08.210Z,1.10
2022-12-12T11:40:37.215Z,1.00
2022-12-12T11:43:24.113Z,1.00
2022-12-12T11:46:08.253Z,1.00
2022-12-12T11:48:44.149Z,1.00
2022-12-12T11:51:12.087Z,1.00
2022-12-12T11:53:41.507Z,1.00
2022-12-12T11:56:31.836Z,1.00
2022-12-12T11:59:16.495Z,1.00
2022-12-12T12:02:26.409Z,0.90
2022-12-12T12:05:27.951Z,1.00
2022-12-12T12:08:40.340Z,0.90
2022-12-12T12:11:16.542Z,0.90
2022-12-12T12:13:56.640Z,0.90
2022-12-12T12:16:47.220Z,0.90
2022-12-12T12:19:36.588Z,0.80
2022-12-12T12:22:35.708Z,0.80
2022-12-12T12:25:15.136Z,0.80
2022-12-12T12:28:06.221Z,0.80
2022-12-12T12:31:05.565Z,0.70
2022-12-12T12:34:03.828Z,0.70
2022-12-12T12:36:53.807Z,0.70
2022-12-12T12:39:35.621Z,0.70
2022-12-12T12:42:15.084Z,0.70
2022-12-12T12:45:14.225Z,0.70
2022-12-12T12:47:52.388Z,0.70
2022-12-12T12:50:25.135Z,0.70
2022-12-12T12:52:59.078Z,0.70
2022-12-12T12:55:38.543Z,0.60
2022-12-12T12:58:15.086Z,0.60
2022-12-12T13:00:42.449Z,0.60
2022-12-12T13:03:19.014Z,0.60
2022-12-12T13:05:51.300Z,0.60
2022-12-12T13:08:48.479Z,0.50
2022-12-12T13:11:34.102Z,0.50
2022-12-12T13:14:33.612Z,0.50
2022-12-12T13:17:06.760Z,0.50
2022-12-12T13:19:41.723Z,0.50
2022-12-12T13:22:28.856Z,0.40
2022-12-12T13:25:06.402Z,0.40
2022-12-12T13:27:45.599Z,0.40
2022-12-12T13:30:26.053Z,0.40
2022-12-12T13:32:58.810Z,0.40
2022-12-12T13:35:30.199Z,0.40
2022-12-12T13:37:57.896Z,0.40
2022-12-12T13:40:31.605Z,0.40
2022-12-12T13:43:07.454Z,0.40
2022-12-12T13:45:40.652Z,0.40
2022-12-12T13:48:53.087Z,0.40
2022-12-12T13:51:31.997Z,0.40
2022-12-12T13:54:12.837Z,0.30
2022-12-12T13:57:06.445Z,0.30
2022-12-12T13:59:53.272Z,0.30
2022-12-12T14:02:23.503Z,0.30
2022-12-12T14:05:36.571Z,0.30
2022-12-12T14:08:09.882Z,0.30
2022-12-12T14:10:39.908Z,0.30
2022-12-12T14:13:47.380Z,0.30
2022-12-12T14:16:14.565Z,0.30
2022-12-12T14:18:56.067Z,0.20
2022-12-12T14:21:41.606Z,0.20
2022-12-12T14:24:54.698Z,0.20
2022-12-12T14:27:50.491Z,0.20
2022-12-12T14:30:39.037Z,0.20
2022-12-12T14:33:23.278Z,0.20
2022-12-12T14:36:39.124Z,0.20
2022-12-12T14:39:48.578Z,0.10
2022-12-12T14:42:26.607Z,0.10
2022-12-12T14:45:28.570Z,0.10
2022-12-12T14:48:28.729Z,0.10
2022-12-12T14:50:57.848Z,0.10
2022-12-12T14:53:31.721Z,0.10
2022-12-12T14:56:02.081Z,0.10
2022-12-12T14:58:36.269Z,0.10
2022-12-12T15:01:05.830Z,0.00
2022-12-12T15:03:45.980Z,0.00
2022-12-12T15:06:29.428Z,0.00
2022-12-12T15:09:07.811Z,0.00
2022-12-12T15:11:35.848Z,0.00
2022-12-12T15:14:04.256Z,0.00
2022-12-12T15:16:47.712Z,0.00
2022-12-12T15:19:19.493Z,0.00
2022-12-12T15:21:47.554Z,0.00
2022-12-12T15:24:22.127Z,-0.10
2022-12-12T15:26:52.793Z,-0.10
2022-12-12T15:29:23.965Z,-0.10
2022-12-12T15:31:59.379Z,-0.10
2022-12-12T15:34:42.067Z,-0.10
2022-12-12T15:37:10.296Z,-0.10
2022-12-12T15:39:37.942Z,-0.10
2022-12-12T15:42:06.615Z,-0.10
2022-12-12T15:44:34.034Z,-0.10
2022-12-12T15:47:01.345Z,-0.10
2022-12-12T15:49:39.119Z,-0.10
2022-12-12T15:52:29.031Z,-0.10
2022-12-12T15:55:03.146Z,-0.10
2022-12-12T15:57:34.433Z,-0.10
2022-12-12T16:00:07.503Z,0.00
2022-12-12T16:02:35.711Z,0.00
2022-12-12T16:05:07.018Z,0.00
2022-12-12T16:07:37.663Z,0.10
2022-12-12T16:10:11.632Z,0.00
2022-12-12T16:12:57.655Z,0.00
2022-12-12T16:15:31.638Z,0.10
2022-12-12T16:18:15.295Z,0.00
2022-12-12T16:20:49.473Z,0.10
2022-12-12T16:23:26.990Z,0.10
2022-12-12T16:25:54.705Z,0.10
2022-12-12T16:28:28.432Z,0.10
2022-12-12T16:30:57.336Z,0.20
2022-12-12T16:33:35.088Z,0.20
2022-12-12T16:36:11.551Z,0.20
2022-12-12T16:38:40.151Z,0.10
2022-12-12T16:41:10.996Z,0.10
2022-12-12T16:43:39.129Z,0.10
2022-12-12T16:46:06.552Z,0.10
2022-12-12T16:48:34.995Z,0.10
2022-12-12T16:51:05.119Z,0.10
2022-12-12T16:53:33.655Z,0.10
2022-12-12T16:56:00.921Z,0.10
2022-12-12T16:58:27.847Z,0.10
2022-12-12T17:00:55.828Z,0.10
2022-12-12T17:03:23.831Z,0.10
2022-12-12T17:05:52.394Z,0.00
2022-12-12T17:08:20.985Z,0.00
2022-12-12T17:10:50.817Z,0.00
2022-12-12T17:13:20.434Z,0.00
2022-12-12T17:15:47.644Z,-0.10
2022-12-12T17:18:14.935Z,-0.10
2022-12-12T17:20:43.059Z,-0.10
2022-12-12T17:23:30.503Z,-0.10
2022-12-12T17:26:03.421Z,-0.10
2022-12-12T17:28:33.719Z,-0.10
2022-12-12T17:31:02.063Z,-0.10
2022-12-12T17:33:29.003Z,-0.10
2022-12-12T17:36:01.929Z,-0.10
2022-12-12T17:38:30.524Z,-0.10
2022-12-12T17:41:02.264Z,-0.10
2022-12-12T17:43:29.243Z,0.00
2022-12-12T17:46:08.224Z,0.00
2022-12-12T17:48:36.163Z,0.00
2022-12-12T17:51:05.284Z,0.00
2022-12-12T17:53:40.940Z,0.00
2022-12-12T17:56:23.906Z,-0.10
2022-12-12T17:58:51.261Z,-0.10
2022-12-12T18:01:31.373Z,-0.20
2022-12-12T18:03:59.856Z,-0.30
2022-12-12T18:06:30.423Z,-0.30
2022-12-12T18:08:58.777Z,-0.30
2022-12-12T18:11:28.352Z,-0.30
2022-12-12T18:13:57.779Z,-0.20
2022-12-12T18:16:26.529Z,-0.20
2022-12-12T18:18:54.846Z,0.00
2022-12-12T18:24:11.634Z,0.00
2022-12-12T18:26:39.009Z,0.00
2022-12-12T18:29:07.405Z,0.10
2022-12-12T18:31:35.676Z,0.10
2022-12-12T18:34:03.213Z,0.10
2022-12-12T18:36:32.219Z,0.00
2022-12-12T18:39:03.324Z,0.00
2022-12-12T18:41:31.717Z,0.00
2022-12-12T18:44:02.993Z,-0.10
2022-12-12T18:46:35.900Z,-0.20
2022-12-12T18:49:07.742Z,-0.20
2022-12-12T18:51:36.328Z,-0.20
2022-12-12T18:54:09.394Z,-0.20
2022-12-12T18:56:40.787Z,-0.20
2022-12-12T18:59:08.109Z,-0.10
2022-12-12T19:01:37.028Z,-0.10
2022-12-12T19:04:11.705Z,0.00
2022-12-12T19:06:42.081Z,0.00
2022-12-12T19:09:14.552Z,0.00
2022-12-12T19:11:42.767Z,0.00
2022-12-12T19:14:11.575Z,0.00
2022-12-12T19:16:39.056Z,0.00
2022-12-12T19:19:06.527Z,0.00
2022-12-12T19:21:36.534Z,-0.10
2022-12-12T19:24:04.857Z,-0.10
2022-12-12T19:26:33.139Z,-0.20
2022-12-12T19:29:09.803Z,-0.20
2022-12-12T19:31:37.627Z,-0.30
2022-12-12T19:34:06.404Z,-0.30
2022-12-12T19:36:35.807Z,-0.30
2022-12-12T19:39:05.334Z,-0.30
2022-12-12T19:41:33.403Z,-0.20
2022-12-12T19:44:04.869Z,-0.20
2022-12-12T19:46:32.766Z,-0.20
2022-12-12T19:49:02.895Z,-0.20
2022-12-12T19:51:32.883Z,-0.20
2022-12-12T19:54:00.509Z,-0.10
2022-12-12T19:56:34.536Z,-0.10
2022-12-12T19:59:02.458Z,-0.10
2022-12-12T20:01:32.520Z,-0.10
2022-12-12T20:04:05.323Z,-0.10
2022-12-12T20:06:41.267Z,-0.20
2022-12-12T20:09:09.477Z,-0.20
2022-12-12T20:11:39.953Z,-0.20
2022-12-12T20:14:06.922Z,-0.20
2022-12-12T20:16:34.221Z,-0.20
2022-12-12T20:19:01.537Z,-0.20
2022-12-12T20:22:10.719Z,-0.20
2022-12-12T20:24:23.892Z,-0.20
2022-12-12T20:26:52.771Z,-0.20
2022-12-12T20:29:21.648Z,-0.20
2022-12-12T20:31:49.764Z,-0.20
2022-12-12T20:34:18.798Z,-0.20
2022-12-12T20:36:46.580Z,-0.20
2022-12-12T20:39:22.364Z,-0.30
2022-12-12T20:41:50.679Z,-0.30
2022-12-12T20:44:17.757Z,-0.30
2022-12-12T20:46:46.497Z,-0.40
2022-12-12T20:49:16.505Z,-0.50
2022-12-12T20:51:55.239Z,-0.50
2022-12-12T20:54:24.608Z,-0.70
2022-12-12T20:56:52.925Z,-0.70
2022-12-12T20:59:19.930Z,-0.80
2022-12-12T21:01:47.638Z,-0.80
2022-12-12T21:04:15.226Z,-0.80
2022-12-12T21:06:48.371Z,-0.70
2022-12-12T21:09:23.092Z,-0.70
2022-12-12T21:11:52.720Z,-0.70
2022-12-12T21:14:19.641Z,-0.70
2022-12-12T21:16:47.177Z,-0.70
2022-12-12T21:19:14.418Z,-0.70
2022-12-12T21:21:43.251Z,-0.70
2022-12-12T21:24:12.412Z,-0.70
2022-12-12T21:26:39.860Z,-0.70
2022-12-12T21:29:06.879Z,-0.80
2022-12-12T21:31:37.240Z,-0.80
2022-12-12T21:34:05.749Z,-0.80
2022-12-12T21:36:33.818Z,-0.90
2022-12-12T21:39:02.437Z,-0.90
2022-12-12T21:41:29.649Z,-0.90
2022-12-12T21:43:59.681Z,-1.10
2022-12-12T21:46:29.303Z,-1.20
2022-12-12T21:49:15.816Z,-1.40
2022-12-12T21:51:43.726Z,-1.50
2022-12-12T21:54:13.583Z,-1.60
2022-12-12T21:56:41.941Z,-1.60
2022-12-12T21:59:09.918Z,-1.70
2022-12-12T22:01:37.497Z,-1.70
2022-12-12T22:04:04.552Z,-1.70
2022-12-12T22:06:34.193Z,-1.70
2022-12-12T22:09:04.195Z,-1.70
2022-12-12T22:11:40.974Z,-1.70
2022-12-12T22:14:19.068Z,-1.60
2022-12-12T22:16:46.339Z,-1.50
2022-12-12T22:19:15.416Z,-1.30
2022-12-12T22:21:46.029Z,-1.20
2022-12-12T22:24:13.269Z,-1.20
2022-12-12T22:26:42.452Z,-1.10
2022-12-12T22:29:15.649Z,-1.10
2022-12-12T22:31:43.277Z,-1.00
2022-12-12T22:34:16.097Z,-1.00
2022-12-12T22:36:43.581Z,-0.90
2022-12-12T22:39:23.504Z,-0.90
2022-12-12T22:41:51.333Z,-0.90
2022-12-12T22:44:20.397Z,-0.80
2022-12-12T22:46:49.341Z,-0.80
2022-12-12T22:49:25.433Z,-0.70
2022-12-12T22:51:54.141Z,-0.70
2022-12-12T22:54:21.178Z,-0.70
2022-12-12T22:56:48.374Z,-0.70
2022-12-12T22:59:15.397Z,-0.70
2022-12-12T23:01:43.370Z,-0.70
2022-12-12T23:04:14.098Z,-0.70
2022-12-12T23:06:43.021Z,-0.70
2022-12-12T23:09:20.195Z,-0.70
2022-12-12T23:11:48.315Z,-0.70
2022-12-12T23:14:17.523Z,-0.70
2022-12-12T23:16:45.678Z,-0.70
2022-12-12T23:19:15.103Z,-0.70
2022-12-12T23:21:43.012Z,-0.70
2022-12-12T23:24:10.676Z,-0.70
2022-12-12T23:26:38.447Z,-0.70
2022-12-12T23:29:09.093Z,-0.70
2022-12-12T23:31:37.794Z,-0.80
2022-12-12T23:34:07.785Z,-0.80
2022-12-12T23:36:35.110Z,-0.80
2022-12-12T23:39:06.880Z,-0.80
2022-12-12T23:41:36.743Z,-0.80
2022-12-12T23:44:04.669Z,-0.80
2022-12-12T23:46:32.734Z,-0.90
2022-12-12T23:49:06.946Z,-0.90
2022-12-12T23:51:38.208Z,-0.90
2022-12-12T23:54:06.757Z,-0.80
2022-12-12T23:56:35.420Z,-0.90
2022-12-12T23:59:02.817Z,-0.90
